首页
METAR-TAF:

METAR-TAF

机场 :

Ottumwa Industrial Airport

Ottumwa, 艾奥瓦州, 美国

纬度: 41-06-24N, 经度: 092-26-53W, 海拔: 258米

当前天气观测

该预报发布于7分钟前的10:53 UTC
风速5节,风向东转东南
温度 18°C
湿度 100%
气压 1011 hPa
能見度: 16.1公里
天空无云

METAR: KOTM 261053Z AUTO 11005KT 10SM CLR 18/18 A2985 RMK AO2 SLP103 T01830178

时间: 06:00 (11:00 UTC)

预报

该预报发布于5小时和30分钟前的05:30 UTC
预报有效从26日的 06点(UTC)到 27日的 06点(UTC)
风速8节,风向东南
能見度: 10公里
少量云层高于12000英尺
从 26日的 1200点(UTC)
风速8节,风向东南
能見度: 9.7公里
散云层高于4000英尺
多云层高于11000英尺, 积雨云.
小阵雨, 附近有雷暴
从 26日的 1600点(UTC)
风速11节,风向南转南东,有时为19节阵风
能見度: 10公里
多云层高于5000英尺
从 27日的 0000点(UTC)
风速9节,风向,有时为17节阵风
能見度: 10公里
多云层高于7000英尺

TAF: KOTM 260530Z 2606/2706 13008KT P6SM FEW120 FM261200 14008KT 6SM -SHRA VCTS SCT040 BKN110CB FM261600 16011G19KT P6SM BKN050 FM270000 17009G17KT P6SM BKN070

超过4000个机场的气象观测和天气预报(METAR&TAF报告)。

可查询的气象台以黄色和红色小点在地图上表示。

将鼠标移到小点上方,可查看气象台名称。

然后点击查看天气观测和预报。

如需切换地图:点击带黑十字的绿色按钮放大地图;点击带横线的绿色按钮缩小地图;或者点击绿色箭头查看邻近地区的地图。


METAR-TAF: